sensor_id;sensor_type;location;lat;lon;timestamp;pressure;altitude;pressure_sealevel;temperature;humidity
21520;BME280;10921;53.614;9.882;2023-08-17T00:00:22;102007.63;;;19.36;75.65
21520;BME280;10921;53.614;9.882;2023-08-17T00:02:49;101989.84;;;19.25;75.63
21520;BME280;10921;53.614;9.882;2023-08-17T00:05:15;101975.16;;;19.20;75.53
21520;BME280;10921;53.614;9.882;2023-08-17T00:07:42;101990.03;;;19.24;76.32
21520;BME280;10921;53.614;9.882;2023-08-17T00:10:09;101988.84;;;19.26;76.22
21520;BME280;10921;53.614;9.882;2023-08-17T00:12:35;101963.66;;;19.10;76.54
21520;BME280;10921;53.614;9.882;2023-08-17T00:15:02;101978.72;;;19.20;77.07
21520;BME280;10921;53.614;9.882;2023-08-17T00:17:29;101978.88;;;19.19;76.96
21520;BME280;10921;53.614;9.882;2023-08-17T00:19:56;101988.69;;;19.20;77.14
21520;BME280;10921;53.614;9.882;2023-08-17T00:22:23;101977.69;;;19.13;77.45
21520;BME280;10921;53.614;9.882;2023-08-17T00:24:49;101890.97;;;18.66;77.67
21520;BME280;10921;53.614;9.882;2023-08-17T00:27:16;101943.53;;;18.96;77.65
21520;BME280;10921;53.614;9.882;2023-08-17T00:29:42;101973.44;;;19.11;77.85
21520;BME280;10921;53.614;9.882;2023-08-17T00:32:09;101988.19;;;19.16;77.85
21520;BME280;10921;53.614;9.882;2023-08-17T00:34:44;101950.31;;;18.92;78.12
21520;BME280;10921;53.614;9.882;2023-08-17T00:37:11;101962.13;;;18.99;78.16
21520;BME280;10921;53.614;9.882;2023-08-17T00:39:37;101985.31;;;19.18;77.95
21520;BME280;10921;53.614;9.882;2023-08-17T00:42:04;101978.53;;;19.14;78.26
21520;BME280;10921;53.614;9.882;2023-08-17T00:44:30;101984.13;;;19.20;77.89
21520;BME280;10921;53.614;9.882;2023-08-17T00:46:57;101978.53;;;19.22;77.69
21520;BME280;10921;53.614;9.882;2023-08-17T00:49:23;101964.16;;;19.13;78.05
21520;BME280;10921;53.614;9.882;2023-08-17T00:51:51;101961.13;;;19.16;78.10
21520;BME280;10921;53.614;9.882;2023-08-17T00:54:23;101973.59;;;19.25;78.44
21520;BME280;10921;53.614;9.882;2023-08-17T00:56:51;101955.53;;;19.10;78.25
21520;BME280;10921;53.614;9.882;2023-08-17T00:59:19;101970.59;;;19.20;78.10
21520;BME280;10921;53.614;9.882;2023-08-17T01:01:46;101932.56;;;18.97;78.03
21520;BME280;10921;53.614;9.882;2023-08-17T01:04:13;101945.91;;;19.07;78.15
21520;BME280;10921;53.614;9.882;2023-08-17T01:06:40;101970.59;;;19.20;77.98
21520;BME280;10921;53.614;9.882;2023-08-17T01:09:07;101965.34;;;19.19;78.35
21520;BME280;10921;53.614;9.882;2023-08-17T01:11:47;101947.94;;;19.13;78.81
21520;BME280;10921;53.614;9.882;2023-08-17T01:14:39;101960.78;;;19.19;78.69
21520;BME280;10921;53.614;9.882;2023-08-17T01:17:18;101954.00;;;19.15;79.45
21520;BME280;10921;53.614;9.882;2023-08-17T01:19:49;101928.16;;;18.96;79.14
21520;BME280;10921;53.614;9.882;2023-08-17T01:22:17;101906.19;;;18.83;79.71
21520;BME280;10921;53.614;9.882;2023-08-17T01:24:47;101946.09;;;19.06;79.48
21520;BME280;10921;53.614;9.882;2023-08-17T01:27:13;101941.00;;;19.03;79.94
21520;BME280;10921;53.614;9.882;2023-08-17T01:29:40;101911.75;;;18.82;80.18
21520;BME280;10921;53.614;9.882;2023-08-17T01:32:15;101932.88;;;18.94;80.52
21520;BME280;10921;53.614;9.882;2023-08-17T01:34:48;101948.28;;;19.02;80.70
21520;BME280;10921;53.614;9.882;2023-08-17T01:37:18;101947.59;;;19.00;80.67
21520;BME280;10921;53.614;9.882;2023-08-17T01:39:50;101927.00;;;18.91;80.01
21520;BME280;10921;53.614;9.882;2023-08-17T01:42:19;101945.91;;;18.99;79.59
21520;BME280;10921;53.614;9.882;2023-08-17T01:44:46;101923.97;;;18.78;79.81
21520;BME280;10921;53.614;9.882;2023-08-17T01:47:13;101957.06;;;18.96;79.92
21520;BME280;10921;53.614;9.882;2023-08-17T01:49:39;101960.78;;;18.95;79.97
21520;BME280;10921;53.614;9.882;2023-08-17T01:52:06;101965.19;;;18.96;80.15
21520;BME280;10921;53.614;9.882;2023-08-17T01:54:32;101948.63;;;18.83;80.33
21520;BME280;10921;53.614;9.882;2023-08-17T01:56:59;101969.41;;;18.98;79.57
21520;BME280;10921;53.614;9.882;2023-08-17T01:59:25;101969.06;;;19.02;79.48
21520;BME280;10921;53.614;9.882;2023-08-17T02:01:52;101978.88;;;19.03;79.32
21520;BME280;10921;53.614;9.882;2023-08-17T02:04:18;101983.13;;;19.05;78.67
21520;BME280;10921;53.614;9.882;2023-08-17T02:06:45;101983.28;;;19.04;78.97
21520;BME280;10921;53.614;9.882;2023-08-17T02:09:12;101940.34;;;18.84;78.94
21520;BME280;10921;53.614;9.882;2023-08-17T02:11:38;101962.97;;;19.00;78.91
21520;BME280;10921;53.614;9.882;2023-08-17T02:14:04;101965.34;;;19.03;79.00
21520;BME280;10921;53.614;9.882;2023-08-17T02:16:31;101969.75;;;19.04;78.75
21520;BME280;10921;53.614;9.882;2023-08-17T02:18:57;101961.28;;;18.98;78.98
21520;BME280;10921;53.614;9.882;2023-08-17T02:21:24;101961.63;;;19.04;79.36
21520;BME280;10921;53.614;9.882;2023-08-17T02:23:50;101960.63;;;19.05;79.40
21520;BME280;10921;53.614;9.882;2023-08-17T02:26:17;101951.84;;;19.03;79.03
21520;BME280;10921;53.614;9.882;2023-08-17T02:28:43;101938.97;;;18.96;79.08
21520;BME280;10921;53.614;9.882;2023-08-17T02:31:10;101960.78;;;19.03;79.34
21520;BME280;10921;53.614;9.882;2023-08-17T02:33:36;101955.38;;;19.03;79.15
21520;BME280;10921;53.614;9.882;2023-08-17T02:36:03;101947.44;;;19.02;79.34
21520;BME280;10921;53.614;9.882;2023-08-17T02:38:30;101944.41;;;19.05;78.98
21520;BME280;10921;53.614;9.882;2023-08-17T02:40:56;101910.25;;;18.79;79.20
21520;BME280;10921;53.614;9.882;2023-08-17T02:43:23;101946.41;;;19.03;79.29
21520;BME280;10921;53.614;9.882;2023-08-17T02:45:49;101930.69;;;18.98;79.92
21520;BME280;10921;53.614;9.882;2023-08-17T02:48:16;101928.16;;;18.96;79.84
21520;BME280;10921;53.614;9.882;2023-08-17T02:50:42;101938.31;;;19.03;80.64
21520;BME280;10921;53.614;9.882;2023-08-17T02:53:09;101946.25;;;19.04;81.03
21520;BME280;10921;53.614;9.882;2023-08-17T02:55:35;101925.63;;;18.95;80.29
21520;BME280;10921;53.614;9.882;2023-08-17T02:58:02;101897.41;;;18.81;80.44
21520;BME280;10921;53.614;9.882;2023-08-17T03:00:29;101940.50;;;19.07;80.76
21520;BME280;10921;53.614;9.882;2023-08-17T03:02:55;101935.94;;;19.08;80.55
21520;BME280;10921;53.614;9.882;2023-08-17T03:05:22;101940.34;;;19.09;81.29
21520;BME280;10921;53.614;9.882;2023-08-17T03:07:49;101950.13;;;19.10;80.89
21520;BME280;10921;53.614;9.882;2023-08-17T03:10:15;101955.53;;;19.10;81.16
21520;BME280;10921;53.614;9.882;2023-08-17T03:12:42;101940.50;;;19.07;81.46
21520;BME280;10921;53.614;9.882;2023-08-17T03:15:09;101953.50;;;19.12;81.59
21520;BME280;10921;53.614;9.882;2023-08-17T03:17:36;101944.53;;;19.11;81.44
21520;BME280;10921;53.614;9.882;2023-08-17T03:20:03;101933.88;;;19.10;81.49
21520;BME280;10921;53.614;9.882;2023-08-17T03:22:32;101945.06;;;19.15;81.54
21520;BME280;10921;53.614;9.882;2023-08-17T03:24:59;101916.31;;;18.97;81.24
21520;BME280;10921;53.614;9.882;2023-08-17T03:27:26;101874.28;;;18.79;81.20
21520;BME280;10921;53.614;9.882;2023-08-17T03:29:53;101921.75;;;19.06;81.88
21520;BME280;10921;53.614;9.882;2023-08-17T03:32:19;101931.34;;;19.16;81.57
21520;BME280;10921;53.614;9.882;2023-08-17T03:34:46;101891.50;;;18.86;82.09
21520;BME280;10921;53.614;9.882;2023-08-17T03:37:12;101911.06;;;18.96;81.78
21520;BME280;10921;53.614;9.882;2023-08-17T03:39:39;101949.44;;;19.16;81.83
21520;BME280;10921;53.614;9.882;2023-08-17T03:42:05;101916.66;;;18.94;81.80
21520;BME280;10921;53.614;9.882;2023-08-17T03:44:32;101943.69;;;19.19;82.07
21520;BME280;10921;53.614;9.882;2023-08-17T03:46:58;101910.06;;;18.97;81.99
21520;BME280;10921;53.614;9.882;2023-08-17T03:49:25;101945.06;;;19.23;81.12
21520;BME280;10921;53.614;9.882;2023-08-17T03:51:51;101906.19;;;19.00;81.33
21520;BME280;10921;53.614;9.882;2023-08-17T03:54:18;101944.53;;;19.19;81.72
21520;BME280;10921;53.614;9.882;2023-08-17T03:56:47;101925.13;;;19.08;82.05
21520;BME280;10921;53.614;9.882;2023-08-17T03:59:14;101953.34;;;19.21;81.80
21520;BME280;10921;53.614;9.882;2023-08-17T04:01:40;101929.69;;;19.07;81.85
21520;BME280;10921;53.614;9.882;2023-08-17T04:04:07;101919.19;;;19.04;81.14
21520;BME280;10921;53.614;9.882;2023-08-17T04:06:34;101937.59;;;19.25;81.51
21520;BME280;10921;53.614;9.882;2023-08-17T04:09:01;101941.66;;;19.21;81.71
21520;BME280;10921;53.614;9.882;2023-08-17T04:11:27;101935.25;;;19.22;81.45
21520;BME280;10921;53.614;9.882;2023-08-17T04:13:54;101898.06;;;19.00;81.55
21520;BME280;10921;53.614;9.882;2023-08-17T04:16:20;101944.19;;;19.30;81.29
21520;BME280;10921;53.614;9.882;2023-08-17T04:18:47;101910.91;;;19.06;81.42
21520;BME280;10921;53.614;9.882;2023-08-17T04:21:13;101951.47;;;19.30;81.42
21520;BME280;10921;53.614;9.882;2023-08-17T04:23:40;101874.25;;;18.87;81.75
21520;BME280;10921;53.614;9.882;2023-08-17T04:26:06;101961.78;;;19.35;82.10
21520;BME280;10921;53.614;9.882;2023-08-17T04:28:33;101952.63;;;19.36;81.62
21520;BME280;10921;53.614;9.882;2023-08-17T04:30:59;101961.44;;;19.38;81.22
21520;BME280;10921;53.614;9.882;2023-08-17T04:33:26;101963.28;;;19.37;81.94
21520;BME280;10921;53.614;9.882;2023-08-17T04:35:52;101957.03;;;19.37;81.65
21520;BME280;10921;53.614;9.882;2023-08-17T04:38:19;101959.91;;;19.35;81.96
21520;BME280;10921;53.614;9.882;2023-08-17T04:40:45;101915.63;;;19.12;81.75
21520;BME280;10921;53.614;9.882;2023-08-17T04:43:12;101945.69;;;19.25;82.05
21520;BME280;10921;53.614;9.882;2023-08-17T04:45:38;101956.38;;;19.35;81.67
21520;BME280;10921;53.614;9.882;2023-08-17T04:48:06;101926.97;;;19.15;82.61
21520;BME280;10921;53.614;9.882;2023-08-17T04:50:32;101961.59;;;19.36;82.55
21520;BME280;10921;53.614;9.882;2023-08-17T04:52:59;101974.81;;;19.39;82.65
21520;BME280;10921;53.614;9.882;2023-08-17T04:55:26;101983.78;;;19.40;82.61
21520;BME280;10921;53.614;9.882;2023-08-17T04:57:52;101985.44;;;19.41;82.76
21520;BME280;10921;53.614;9.882;2023-08-17T05:00:19;101987.81;;;19.36;82.84
21520;BME280;10921;53.614;9.882;2023-08-17T05:02:51;101989.19;;;19.40;83.21
21520;BME280;10921;53.614;9.882;2023-08-17T05:05:18;101991.03;;;19.39;83.61
21520;BME280;10921;53.614;9.882;2023-08-17T05:07:44;101987.66;;;19.37;83.98
21520;BME280;10921;53.614;9.882;2023-08-17T05:10:11;101986.97;;;19.35;83.97
21520;BME280;10921;53.614;9.882;2023-08-17T05:12:37;101982.91;;;19.31;84.63
21520;BME280;10921;53.614;9.882;2023-08-17T05:15:04;101956.56;;;19.09;86.08
21520;BME280;10921;53.614;9.882;2023-08-17T05:17:31;101944.22;;;18.98;85.73
21520;BME280;10921;53.614;9.882;2023-08-17T05:19:57;101977.38;;;19.08;86.64
21520;BME280;10921;53.614;9.882;2023-08-17T05:22:24;101962.31;;;18.89;87.49
21520;BME280;10921;53.614;9.882;2023-08-17T05:24:50;101981.56;;;18.86;88.27
21520;BME280;10921;53.614;9.882;2023-08-17T05:27:17;101988.84;;;18.86;89.36
21520;BME280;10921;53.614;9.882;2023-08-17T05:29:44;101989.88;;;18.77;89.78
21520;BME280;10921;53.614;9.882;2023-08-17T05:32:10;101983.59;;;18.68;90.31
21520;BME280;10921;53.614;9.882;2023-08-17T05:34:37;101954.63;;;18.44;90.44
21520;BME280;10921;53.614;9.882;2023-08-17T05:37:03;101953.06;;;18.34;91.78
21520;BME280;10921;53.614;9.882;2023-08-17T05:39:30;101996.34;;;18.50;93.28
21520;BME280;10921;53.614;9.882;2023-08-17T05:41:58;101967.22;;;18.19;94.26
21520;BME280;10921;53.614;9.882;2023-08-17T05:44:25;102007.00;;;18.43;94.36
21520;BME280;10921;53.614;9.882;2023-08-17T05:46:51;102010.03;;;18.40;94.87
21520;BME280;10921;53.614;9.882;2023-08-17T05:49:18;102017.13;;;18.41;95.27
21520;BME280;10921;53.614;9.882;2023-08-17T05:51:44;101999.31;;;18.22;95.65
21520;BME280;10921;53.614;9.882;2023-08-17T05:54:11;102032.31;;;18.42;95.78
21520;BME280;10921;53.614;9.882;2023-08-17T05:56:37;102007.63;;;18.37;95.63
21520;BME280;10921;53.614;9.882;2023-08-17T05:59:04;102022.69;;;18.40;96.23
21520;BME280;10921;53.614;9.882;2023-08-17T06:01:31;102018.13;;;18.40;96.21
21520;BME280;10921;53.614;9.882;2023-08-17T06:03:57;102025.22;;;18.41;96.32
21520;BME280;10921;53.614;9.882;2023-08-17T06:06:24;102028.63;;;18.43;96.73
21520;BME280;10921;53.614;9.882;2023-08-17T06:08:52;101961.97;;;18.10;96.79
21520;BME280;10921;53.614;9.882;2023-08-17T06:11:19;102008.66;;;18.36;97.01
21520;BME280;10921;53.614;9.882;2023-08-17T06:13:45;102014.41;;;18.41;97.05
21520;BME280;10921;53.614;9.882;2023-08-17T06:16:12;102009.84;;;18.42;97.51
21520;BME280;10921;53.614;9.882;2023-08-17T06:18:39;102008.81;;;18.35;97.63
21520;BME280;10921;53.614;9.882;2023-08-17T06:21:05;102016.06;;;18.34;98.59
21520;BME280;10921;53.614;9.882;2023-08-17T06:23:31;102010.34;;;18.29;99.06
21520;BME280;10921;53.614;9.882;2023-08-17T06:25:59;102024.38;;;18.33;99.09
21520;BME280;10921;53.614;9.882;2023-08-17T06:28:26;102026.38;;;18.31;99.90
21520;BME280;10921;53.614;9.882;2023-08-17T06:30:54;102006.09;;;18.26;100.00
21520;BME280;10921;53.614;9.882;2023-08-17T06:33:21;102020.13;;;18.30;100.00
21520;BME280;10921;53.614;9.882;2023-08-17T06:35:49;101975.63;;;18.08;100.00
21520;BME280;10921;53.614;9.882;2023-08-17T06:38:15;102016.59;;;18.30;100.00
21520;BME280;10921;53.614;9.882;2023-08-17T06:40:42;102018.97;;;18.33;100.00
21520;BME280;10921;53.614;9.882;2023-08-17T06:43:09;102004.25;;;18.27;100.00
21520;BME280;10921;53.614;9.882;2023-08-17T06:45:35;102011.00;;;18.31;100.00
21520;BME280;10921;53.614;9.882;2023-08-17T06:48:02;102009.16;;;18.32;100.00
21520;BME280;10921;53.614;9.882;2023-08-17T06:50:28;102014.41;;;18.33;100.00
21520;BME280;10921;53.614;9.882;2023-08-17T06:52:55;102002.22;;;18.29;100.00
21520;BME280;10921;53.614;9.882;2023-08-17T06:55:21;102005.25;;;18.34;100.00
21520;BME280;10921;53.614;9.882;2023-08-17T06:57:48;102006.47;;;18.32;100.00
21520;BME280;10921;53.614;9.882;2023-08-17T07:00:18;102010.38;;;18.45;100.00
21520;BME280;10921;53.614;9.882;2023-08-17T07:02:48;102007.00;;;18.43;100.00
21520;BME280;10921;53.614;9.882;2023-08-17T07:05:21;102003.13;;;18.46;100.00
21520;BME280;10921;53.614;9.882;2023-08-17T07:07:48;101994.66;;;18.49;100.00
21520;BME280;10921;53.614;9.882;2023-08-17T07:10:14;102002.97;;;18.47;100.00
21520;BME280;10921;53.614;9.882;2023-08-17T07:12:41;101997.19;;;18.50;100.00
21520;BME280;10921;53.614;9.882;2023-08-17T07:15:07;101989.25;;;18.49;100.00
21520;BME280;10921;53.614;9.882;2023-08-17T07:17:34;101960.16;;;18.35;100.00
21520;BME280;10921;53.614;9.882;2023-08-17T07:20:03;101964.41;;;18.37;100.00
21520;BME280;10921;53.614;9.882;2023-08-17T07:22:33;101984.22;;;18.54;100.00
21520;BME280;10921;53.614;9.882;2023-08-17T07:24:59;101963.06;;;18.41;100.00
21520;BME280;10921;53.614;9.882;2023-08-17T07:27:26;101979.47;;;18.56;100.00
21520;BME280;10921;53.614;9.882;2023-08-17T07:29:53;101985.78;;;18.65;100.00
21520;BME280;10921;53.614;9.882;2023-08-17T07:32:19;101995.25;;;18.69;100.00
21520;BME280;10921;53.614;9.882;2023-08-17T07:34:47;102000.31;;;18.72;100.00
21520;BME280;10921;53.614;9.882;2023-08-17T07:37:14;102002.03;;;18.73;100.00
21520;BME280;10921;53.614;9.882;2023-08-17T07:39:41;102005.94;;;18.78;100.00
21520;BME280;10921;53.614;9.882;2023-08-17T07:42:08;102002.53;;;18.76;100.00
21520;BME280;10921;53.614;9.882;2023-08-17T07:44:35;102009.13;;;18.82;100.00
21520;BME280;10921;53.614;9.882;2023-08-17T07:47:02;102002.84;;;18.81;100.00
21520;BME280;10921;53.614;9.882;2023-08-17T07:49:29;102004.56;;;18.82;100.00
21520;BME280;10921;53.614;9.882;2023-08-17T07:51:58;102012.00;;;18.88;100.00
21520;BME280;10921;53.614;9.882;2023-08-17T07:54:25;102012.69;;;18.90;100.00
21520;BME280;10921;53.614;9.882;2023-08-17T07:56:52;102010.50;;;18.94;100.00
21520;BME280;10921;53.614;9.882;2023-08-17T07:59:18;102003.41;;;18.93;100.00
21520;BME280;10921;53.614;9.882;2023-08-17T08:01:45;102013.19;;;19.02;100.00
21520;BME280;10921;53.614;9.882;2023-08-17T08:04:11;102014.72;;;19.05;100.00
21520;BME280;10921;53.614;9.882;2023-08-17T08:06:38;102003.75;;;19.06;100.00
21520;BME280;10921;53.614;9.882;2023-08-17T08:09:04;102007.97;;;19.09;100.00
21520;BME280;10921;53.614;9.882;2023-08-17T08:11:31;102016.41;;;19.14;100.00
21520;BME280;10921;53.614;9.882;2023-08-17T08:13:58;102009.81;;;19.16;100.00
21520;BME280;10921;53.614;9.882;2023-08-17T08:16:24;101997.81;;;19.03;100.00
21520;BME280;10921;53.614;9.882;2023-08-17T08:18:51;101961.13;;;18.92;100.00
21520;BME280;10921;53.614;9.882;2023-08-17T08:21:17;101981.25;;;19.06;100.00
21520;BME280;10921;53.614;9.882;2023-08-17T08:23:44;102007.78;;;19.26;100.00
21520;BME280;10921;53.614;9.882;2023-08-17T08:26:10;102013.03;;;19.28;100.00
21520;BME280;10921;53.614;9.882;2023-08-17T08:28:37;101985.81;;;19.13;100.00
21520;BME280;10921;53.614;9.882;2023-08-17T08:31:03;102016.25;;;19.31;100.00
21520;BME280;10921;53.614;9.882;2023-08-17T08:33:30;102016.75;;;19.35;100.00
21520;BME280;10921;53.614;9.882;2023-08-17T08:35:57;102020.13;;;19.37;100.00
21520;BME280;10921;53.614;9.882;2023-08-17T08:38:24;102026.22;;;19.39;100.00
21520;BME280;10921;53.614;9.882;2023-08-17T08:40:51;102023.31;;;19.41;100.00
21520;BME280;10921;53.614;9.882;2023-08-17T08:43:18;102010.84;;;19.40;100.00
21520;BME280;10921;53.614;9.882;2023-08-17T08:45:45;102019.28;;;19.37;98.72
21520;BME280;10921;53.614;9.882;2023-08-17T08:48:13;102010.50;;;19.35;99.32
21520;BME280;10921;53.614;9.882;2023-08-17T08:50:42;102017.59;;;19.36;97.81
21520;BME280;10921;53.614;9.882;2023-08-17T08:53:17;102011.50;;;19.33;98.39
21520;BME280;10921;53.614;9.882;2023-08-17T08:55:57;101960.97;;;19.02;98.04
21520;BME280;10921;53.614;9.882;2023-08-17T08:58:25;101990.03;;;19.16;97.55
21520;BME280;10921;53.614;9.882;2023-08-17T09:00:52;101992.91;;;19.14;98.24
21520;BME280;10921;53.614;9.882;2023-08-17T09:03:20;101981.25;;;19.06;98.61
21520;BME280;10921;53.614;9.882;2023-08-17T09:05:48;102007.78;;;19.18;98.73
21520;BME280;10921;53.614;9.882;2023-08-17T09:08:21;101965.53;;;19.01;99.44
21520;BME280;10921;53.614;9.882;2023-08-17T09:10:49;101999.50;;;19.20;99.74
21520;BME280;10921;53.614;9.882;2023-08-17T09:13:15;102002.91;;;19.22;100.00
21520;BME280;10921;53.614;9.882;2023-08-17T09:15:42;101986.13;;;19.10;100.00
21520;BME280;10921;53.614;9.882;2023-08-17T09:18:09;101982.25;;;19.13;100.00
21520;BME280;10921;53.614;9.882;2023-08-17T09:23:18;101993.41;;;19.26;99.73
21520;BME280;10921;53.614;9.882;2023-08-17T09:25:49;101993.75;;;19.23;98.79
21520;BME280;10921;53.614;9.882;2023-08-17T09:28:19;101954.88;;;19.00;98.63
21520;BME280;10921;53.614;9.882;2023-08-17T09:33:20;101977.69;;;19.13;97.76
21520;BME280;10921;53.614;9.882;2023-08-17T09:35:48;101977.34;;;19.16;98.37
21520;BME280;10921;53.614;9.882;2023-08-17T09:38:15;101979.88;;;19.18;98.99
21520;BME280;10921;53.614;9.882;2023-08-17T09:40:42;101969.06;;;19.10;99.21
21520;BME280;10921;53.614;9.882;2023-08-17T09:43:09;101973.13;;;19.22;98.87
21520;BME280;10921;53.614;9.882;2023-08-17T09:45:39;101935.09;;;19.07;100.00
21520;BME280;10921;53.614;9.882;2023-08-17T09:48:07;101969.56;;;19.29;100.00
21520;BME280;10921;53.614;9.882;2023-08-17T09:50:36;101971.25;;;19.30;100.00
21520;BME280;10921;53.614;9.882;2023-08-17T09:53:04;101914.47;;;19.06;100.00
21520;BME280;10921;53.614;9.882;2023-08-17T09:55:31;101967.84;;;19.45;100.00
21520;BME280;10921;53.614;9.882;2023-08-17T09:58:01;101968.53;;;19.55;100.00
21520;BME280;10921;53.614;9.882;2023-08-17T10:00:29;101968.00;;;19.67;100.00
21520;BME280;10921;53.614;9.882;2023-08-17T10:02:57;101977.59;;;19.78;100.00
21520;BME280;10921;53.614;9.882;2023-08-17T10:05:37;101987.19;;;19.89;100.00
21520;BME280;10921;53.614;9.882;2023-08-17T10:08:06;101975.16;;;19.99;100.00
21520;BME280;10921;53.614;9.882;2023-08-17T10:10:35;101984.59;;;20.12;100.00
21520;BME280;10921;53.614;9.882;2023-08-17T10:13:10;101988.94;;;20.21;100.00
21520;BME280;10921;53.614;9.882;2023-08-17T10:15:39;101974.72;;;20.19;99.39
21520;BME280;10921;53.614;9.882;2023-08-17T10:18:22;101979.06;;;20.36;100.00
21520;BME280;10921;53.614;9.882;2023-08-17T10:21:02;101972.25;;;20.40;99.09
21520;BME280;10921;53.614;9.882;2023-08-17T10:23:32;101956.66;;;20.34;96.15
21520;BME280;10921;53.614;9.882;2023-08-17T10:26:00;101973.09;;;20.41;94.60
21520;BME280;10921;53.614;9.882;2023-08-17T10:28:30;101957.50;;;20.34;91.65
21520;BME280;10921;53.614;9.882;2023-08-17T10:30:57;101948.91;;;20.31;88.62
21520;BME280;10921;53.614;9.882;2023-08-17T10:33:24;101951.00;;;20.21;88.03
21520;BME280;10921;53.614;9.882;2023-08-17T10:35:52;101944.97;;;20.02;86.67
21520;BME280;10921;53.614;9.882;2023-08-17T10:38:19;101962.47;;;20.00;88.59
21520;BME280;10921;53.614;9.882;2023-08-17T10:43:53;101944.75;;;19.81;91.51
21520;BME280;10921;53.614;9.882;2023-08-17T10:46:20;101955.41;;;19.83;90.77
21520;BME280;10921;53.614;9.882;2023-08-17T10:48:47;101950.16;;;19.81;89.98
21520;BME280;10921;53.614;9.882;2023-08-17T10:51:13;101930.94;;;19.68;89.08
21520;BME280;10921;53.614;9.882;2023-08-17T10:53:43;101960.94;;;19.97;91.30
21520;BME280;10921;53.614;9.882;2023-08-17T10:56:14;101964.31;;;19.99;89.66
21520;BME280;10921;53.614;9.882;2023-08-17T10:58:43;101967.31;;;20.05;91.46
21520;BME280;10921;53.614;9.882;2023-08-17T11:01:09;101931.88;;;19.83;90.10
21520;BME280;10921;53.614;9.882;2023-08-17T11:03:37;101960.88;;;20.06;89.75
21520;BME280;10921;53.614;9.882;2023-08-17T11:06:17;101969.97;;;20.21;92.85
21520;BME280;10921;53.614;9.882;2023-08-17T11:08:54;101975.03;;;20.24;91.87
21520;BME280;10921;53.614;9.882;2023-08-17T11:11:22;101970.09;;;20.27;91.45
21520;BME280;10921;53.614;9.882;2023-08-17T11:13:49;101935.97;;;20.10;92.87
21520;BME280;10921;53.614;9.882;2023-08-17T11:16:22;101982.63;;;20.36;91.20
21520;BME280;10921;53.614;9.882;2023-08-17T11:18:50;101977.00;;;20.38;92.67
21520;BME280;10921;53.614;9.882;2023-08-17T11:21:17;101997.09;;;20.52;92.10
21520;BME280;10921;53.614;9.882;2023-08-17T11:23:45;101991.16;;;20.56;91.47
21520;BME280;10921;53.614;9.882;2023-08-17T11:26:18;102000.63;;;20.60;90.37
21520;BME280;10921;53.614;9.882;2023-08-17T11:28:45;101993.69;;;20.58;88.76
21520;BME280;10921;53.614;9.882;2023-08-17T11:31:13;101993.84;;;20.56;88.43
21520;BME280;10921;53.614;9.882;2023-08-17T11:33:42;101996.38;;;20.81;88.77
21520;BME280;10921;53.614;9.882;2023-08-17T11:36:09;101984.69;;;20.57;86.71
21520;BME280;10921;53.614;9.882;2023-08-17T11:38:41;101981.66;;;20.52;88.33
21520;BME280;10921;53.614;9.882;2023-08-17T11:41:08;101993.44;;;20.45;88.18
21520;BME280;10921;53.614;9.882;2023-08-17T11:43:36;101989.88;;;20.44;89.28
21520;BME280;10921;53.614;9.882;2023-08-17T11:46:03;101967.59;;;20.18;88.00
21520;BME280;10921;53.614;9.882;2023-08-17T11:48:31;101999.72;;;20.37;88.77
21520;BME280;10921;53.614;9.882;2023-08-17T11:51:01;102006.16;;;20.36;89.04
21520;BME280;10921;53.614;9.882;2023-08-17T11:53:37;101999.19;;;20.33;90.83
21520;BME280;10921;53.614;9.882;2023-08-17T11:56:06;101984.19;;;20.23;90.74
21520;BME280;10921;53.614;9.882;2023-08-17T11:58:43;101992.94;;;20.33;91.99
21520;BME280;10921;53.614;9.882;2023-08-17T12:01:12;101994.31;;;20.29;91.71
21520;BME280;10921;53.614;9.882;2023-08-17T12:03:39;101963.56;;;20.14;91.07
21520;BME280;10921;53.614;9.882;2023-08-17T12:06:08;101980.44;;;20.24;91.81
21520;BME280;10921;53.614;9.882;2023-08-17T12:08:35;101998.03;;;20.36;93.13
21520;BME280;10921;53.614;9.882;2023-08-17T12:11:04;101991.22;;;20.32;92.15
21520;BME280;10921;53.614;9.882;2023-08-17T12:13:35;101985.81;;;20.32;93.47
21520;BME280;10921;53.614;9.882;2023-08-17T12:16:03;101984.78;;;20.33;92.97
21520;BME280;10921;53.614;9.882;2023-08-17T12:18:34;101975.34;;;20.29;93.78
21520;BME280;10921;53.614;9.882;2023-08-17T12:21:00;101973.09;;;20.32;93.61
21520;BME280;10921;53.614;9.882;2023-08-17T12:23:27;101973.94;;;20.33;92.85
21520;BME280;10921;53.614;9.882;2023-08-17T12:25:54;101940.38;;;20.11;94.36
21520;BME280;10921;53.614;9.882;2023-08-17T12:28:23;101957.09;;;20.23;93.57
21520;BME280;10921;53.614;9.882;2023-08-17T12:31:00;101966.91;;;20.24;95.67
21520;BME280;10921;53.614;9.882;2023-08-17T12:33:27;101962.19;;;20.18;93.70
21520;BME280;10921;53.614;9.882;2023-08-17T12:35:54;101943.63;;;20.07;95.64
21520;BME280;10921;53.614;9.882;2023-08-17T12:38:23;101989.47;;;20.16;95.03
21520;BME280;10921;53.614;9.882;2023-08-17T12:40:50;101989.59;;;20.23;96.76
21520;BME280;10921;53.614;9.882;2023-08-17T12:43:16;101993.16;;;20.23;94.17
21520;BME280;10921;53.614;9.882;2023-08-17T12:45:43;101997.72;;;20.31;95.59
21520;BME280;10921;53.614;9.882;2023-08-17T12:48:09;101981.81;;;20.20;93.44
21520;BME280;10921;53.614;9.882;2023-08-17T12:50:36;101981.63;;;20.29;92.65
21520;BME280;10921;53.614;9.882;2023-08-17T12:53:08;101963.03;;;20.18;93.22
21520;BME280;10921;53.614;9.882;2023-08-17T12:55:35;101970.94;;;20.28;91.73
21520;BME280;10921;53.614;9.882;2023-08-17T12:58:02;101975.47;;;20.35;93.03